createdAt,value
2022-10-06T00:00:25.121Z,101322.81
2022-10-06T00:02:48.737Z,101325.13
2022-10-06T00:05:12.330Z,101320.41
2022-10-06T00:07:36.815Z,101322.94
2022-10-06T00:10:00.517Z,101322.94
2022-10-06T00:12:24.060Z,101325.53
2022-10-06T00:14:49.021Z,101331.09
2022-10-06T00:17:12.535Z,101331.81
2022-10-06T00:19:36.130Z,101338.38
2022-10-06T00:21:59.815Z,101330.44
2022-10-06T00:24:23.418Z,101342.09
2022-10-06T00:26:47.375Z,101336.22
2022-10-06T00:29:13.324Z,101345.34
2022-10-06T00:31:38.624Z,101341.22
2022-10-06T00:34:02.233Z,101339.97
2022-10-06T00:36:25.783Z,101344.94
2022-10-06T00:38:49.532Z,101353.78
2022-10-06T00:41:15.083Z,101347.94
2022-10-06T00:43:49.773Z,101359.19
2022-10-06T00:46:20.578Z,101350.09
2022-10-06T00:48:48.631Z,101352.34
2022-10-06T00:51:12.283Z,101357.78
2022-10-06T00:53:36.338Z,101351.63
2022-10-06T00:56:00.035Z,101357.22
2022-10-06T00:58:23.600Z,101361.06
2022-10-06T01:00:49.214Z,101368.91
2022-10-06T01:03:19.007Z,101364.03
2022-10-06T01:05:48.600Z,101370.03
2022-10-06T01:08:12.174Z,101373.63
2022-10-06T01:10:36.016Z,101375.31
2022-10-06T01:12:59.676Z,101380.72
2022-10-06T01:15:24.983Z,101376.88
2022-10-06T01:17:55.808Z,101376.16
2022-10-06T01:20:21.529Z,101377.44
2022-10-06T01:22:50.431Z,101376.88
2022-10-06T01:25:17.296Z,101377.16
2022-10-06T01:27:44.723Z,101378.00
2022-10-06T01:30:11.760Z,101378.59
2022-10-06T01:32:40.102Z,101381.16
2022-10-06T01:35:03.673Z,101381.13
2022-10-06T01:37:27.396Z,101387.13
2022-10-06T01:39:52.387Z,101388.00
2022-10-06T01:42:16.067Z,101389.38
2022-10-06T01:44:39.682Z,101390.38
2022-10-06T01:47:06.201Z,101386.53
2022-10-06T01:49:29.816Z,101396.97
2022-10-06T01:51:53.403Z,101392.25
2022-10-06T01:54:17.188Z,101389.41
2022-10-06T01:56:42.174Z,101390.28
2022-10-06T01:59:05.913Z,101397.72
2022-10-06T02:01:29.585Z,101394.13
2022-10-06T02:03:53.144Z,101392.28
2022-10-06T02:06:16.797Z,101395.41
2022-10-06T02:08:40.867Z,101391.94
2022-10-06T02:11:09.090Z,101397.94
2022-10-06T02:13:39.906Z,101398.28
2022-10-06T02:16:04.009Z,101393.41
2022-10-06T02:18:28.408Z,101399.13
2022-10-06T02:20:52.215Z,101400.25
2022-10-06T02:23:15.766Z,101412.38
2022-10-06T02:25:39.311Z,101412.63
2022-10-06T02:28:03.331Z,101414.50
2022-10-06T02:30:29.579Z,101408.25
2022-10-06T02:32:53.471Z,101420.25
2022-10-06T02:35:17.575Z,101410.56
2022-10-06T02:37:42.602Z,101416.53
2022-10-06T02:40:10.772Z,101422.94
2022-10-06T02:42:37.620Z,101426.50
2022-10-06T02:45:02.431Z,101419.66
2022-10-06T02:47:27.547Z,101416.47
2022-10-06T02:49:51.721Z,101425.91
2022-10-06T02:52:16.074Z,101438.75
2022-10-06T02:54:39.701Z,101433.63
2022-10-06T02:57:03.269Z,101434.22
2022-10-06T02:59:27.450Z,101446.47
2022-10-06T03:01:52.633Z,101448.19
2022-10-06T03:04:17.708Z,101451.88
2022-10-06T03:06:42.250Z,101458.44
2022-10-06T03:09:18.809Z,101460.75
2022-10-06T03:11:44.244Z,101478.28
2022-10-06T03:14:14.092Z,101479.25
2022-10-06T03:16:41.711Z,101477.69
2022-10-06T03:19:13.525Z,101485.38
2022-10-06T03:21:44.465Z,101498.78
2022-10-06T03:24:10.187Z,101497.38
2022-10-06T03:26:36.834Z,101502.78
2022-10-06T03:29:01.410Z,101505.34
2022-10-06T03:31:26.015Z,101515.50
2022-10-06T03:33:50.743Z,101513.50
2022-10-06T03:36:16.769Z,101533.75
2022-10-06T03:38:42.103Z,101551.72
2022-10-06T03:41:08.626Z,101560.59
2022-10-06T03:43:32.552Z,101556.16
2022-10-06T03:46:00.907Z,101549.88
2022-10-06T03:48:26.118Z,101553.47
2022-10-06T03:50:57.095Z,101554.03
2022-10-06T03:53:25.531Z,101555.88
2022-10-06T03:55:50.927Z,101564.72
2022-10-06T03:58:18.747Z,101568.00
2022-10-06T04:00:42.287Z,101584.13
2022-10-06T04:03:06.338Z,101587.25
2022-10-06T04:05:29.901Z,101595.53
2022-10-06T04:07:54.259Z,101598.50
2022-10-06T04:10:17.919Z,101617.38
2022-10-06T04:12:42.843Z,101617.94
2022-10-06T04:15:07.587Z,101617.78
2022-10-06T04:17:31.515Z,101611.38
2022-10-06T04:19:55.082Z,101626.81
2022-10-06T04:22:19.195Z,101636.47
2022-10-06T04:24:43.675Z,101632.22
2022-10-06T04:27:29.995Z,101619.25
2022-10-06T04:30:05.788Z,101608.13
2022-10-06T04:32:30.646Z,101621.22
2022-10-06T04:34:54.166Z,101635.50
2022-10-06T04:37:18.880Z,101631.94
2022-10-06T04:39:42.610Z,101640.78
2022-10-06T04:42:07.440Z,101664.94
2022-10-06T04:44:31.031Z,101672.91
2022-10-06T04:47:00.506Z,101667.31
2022-10-06T04:49:24.845Z,101670.63
2022-10-06T04:51:50.554Z,101668.69
2022-10-06T04:54:14.623Z,101671.88
2022-10-06T04:56:38.442Z,101687.31
2022-10-06T04:59:02.665Z,101679.72
2022-10-06T05:01:32.183Z,101693.13
2022-10-06T05:04:02.067Z,101703.31
2022-10-06T05:06:29.738Z,101702.72
2022-10-06T05:08:56.146Z,101701.31
2022-10-06T05:11:25.593Z,101715.22
2022-10-06T05:13:51.077Z,101724.63
2022-10-06T05:16:17.184Z,101726.34
2022-10-06T05:18:43.219Z,101737.72
2022-10-06T05:21:12.822Z,101749.78
2022-10-06T05:23:39.230Z,101747.47
2022-10-06T05:26:03.102Z,101760.84
2022-10-06T05:28:29.885Z,101768.94
2022-10-06T05:30:59.957Z,101770.94
2022-10-06T05:33:23.654Z,101769.41
2022-10-06T05:35:53.602Z,101790.28
2022-10-06T05:38:19.468Z,101790.03
2022-10-06T05:40:49.589Z,101800.34
2022-10-06T05:43:13.249Z,101811.53
2022-10-06T05:45:36.853Z,101815.09
2022-10-06T05:48:00.595Z,101822.78
2022-10-06T05:50:24.659Z,101827.22
2022-10-06T05:52:48.560Z,101839.13
2022-10-06T05:55:13.707Z,101857.78
2022-10-06T05:57:37.285Z,101861.59
2022-10-06T06:00:00.834Z,101875.31
2022-10-06T06:02:24.741Z,101872.53
2022-10-06T06:04:48.548Z,101870.63
2022-10-06T06:07:12.856Z,101884.56
2022-10-06T06:09:38.996Z,101891.78
2022-10-06T06:12:04.014Z,101894.72
2022-10-06T06:14:51.290Z,101892.75
2022-10-06T06:17:19.306Z,101904.78
2022-10-06T06:19:42.835Z,101909.75
2022-10-06T06:22:06.790Z,101918.78
2022-10-06T06:24:33.154Z,101928.69
2022-10-06T06:26:57.396Z,101937.06
2022-10-06T06:29:24.087Z,101941.13
2022-10-06T06:31:48.618Z,101954.31
2022-10-06T06:34:12.731Z,101956.75
2022-10-06T06:36:40.952Z,101958.94
2022-10-06T06:39:10.306Z,101963.06
2022-10-06T06:41:37.829Z,101972.19
2022-10-06T06:44:16.967Z,101979.38
2022-10-06T06:46:50.169Z,101991.97
2022-10-06T06:49:15.954Z,101986.97
2022-10-06T06:51:49.576Z,101988.91
2022-10-06T06:54:14.942Z,101992.03
2022-10-06T06:56:40.554Z,101999.97
2022-10-06T06:59:11.864Z,102009.72
2022-10-06T07:01:39.018Z,102007.91
2022-10-06T07:04:04.410Z,102022.59
2022-10-06T07:06:32.704Z,102027.28
2022-10-06T07:09:00.403Z,102028.91
2022-10-06T07:11:27.273Z,102035.16
2022-10-06T07:13:55.591Z,102038.66
2022-10-06T07:16:37.584Z,102049.09
2022-10-06T07:19:24.623Z,102047.28
2022-10-06T07:22:10.699Z,102049.81
2022-10-06T07:24:51.488Z,102049.63
2022-10-06T07:27:15.176Z,102059.69
2022-10-06T07:29:38.892Z,102065.72
2022-10-06T07:32:03.142Z,102062.41
2022-10-06T07:34:30.552Z,102070.78
2022-10-06T07:36:54.898Z,102077.69
2022-10-06T07:39:18.496Z,102074.88
2022-10-06T07:41:42.096Z,102080.75
2022-10-06T07:44:08.056Z,102082.75
2022-10-06T07:46:33.867Z,102083.34
2022-10-06T07:49:05.215Z,102092.91
2022-10-06T07:51:30.394Z,102101.03
2022-10-06T07:53:55.417Z,102095.50
2022-10-06T07:56:48.074Z,102097.69
2022-10-06T07:59:11.863Z,102110.66
2022-10-06T08:01:35.409Z,102112.78
2022-10-06T08:03:59.484Z,102123.50
2022-10-06T08:06:23.765Z,102124.69
2022-10-06T08:08:52.803Z,102119.59
2022-10-06T08:11:17.623Z,102130.00
2022-10-06T08:13:43.474Z,102132.38
2022-10-06T08:16:07.795Z,102129.41
2022-10-06T08:18:45.925Z,102142.63
2022-10-06T08:21:13.702Z,102152.53
2022-10-06T08:23:40.551Z,102147.13
2022-10-06T08:26:05.499Z,102151.94
2022-10-06T08:28:30.585Z,102157.19
2022-10-06T08:30:55.473Z,102169.16
2022-10-06T08:33:21.460Z,102166.34
2022-10-06T08:35:45.288Z,102168.38
2022-10-06T08:38:08.787Z,102177.97
2022-10-06T08:40:33.663Z,102183.88
2022-10-06T08:43:02.447Z,102193.81
2022-10-06T08:45:38.225Z,102187.91
2022-10-06T08:48:07.176Z,102188.69
2022-10-06T08:50:35.241Z,102192.25
2022-10-06T08:53:14.034Z,102198.16
2022-10-06T08:55:47.890Z,102197.94
2022-10-06T08:58:36.573Z,102194.72
2022-10-06T09:01:14.365Z,102195.91
2022-10-06T09:03:38.595Z,102211.56
2022-10-06T09:06:14.692Z,102199.88
2022-10-06T09:08:50.938Z,102211.38
2022-10-06T09:11:46.346Z,102212.72
2022-10-06T09:14:19.241Z,102219.00
2022-10-06T09:16:49.881Z,102221.56
2022-10-06T09:19:20.611Z,102220.34
2022-10-06T09:21:49.077Z,102226.03
2022-10-06T09:24:17.810Z,102237.31
2022-10-06T09:26:45.385Z,102228.66
2022-10-06T09:29:08.905Z,102232.72
2022-10-06T09:31:39.884Z,102238.19
2022-10-06T09:34:10.662Z,102242.22
2022-10-06T09:36:34.342Z,102234.78
2022-10-06T09:39:00.809Z,102253.94
2022-10-06T09:41:29.476Z,102261.97
2022-10-06T09:43:57.733Z,102258.13
2022-10-06T09:46:24.978Z,102268.31
2022-10-06T09:48:49.887Z,102266.31
2022-10-06T09:51:16.783Z,102264.53
2022-10-06T09:53:40.610Z,102262.28
2022-10-06T09:56:06.059Z,102276.78
2022-10-06T09:58:34.287Z,102273.69
2022-10-06T10:01:01.282Z,102274.16
2022-10-06T10:03:27.213Z,102276.25
2022-10-06T10:05:54.895Z,102270.72
2022-10-06T10:08:24.021Z,102280.19
2022-10-06T10:10:47.675Z,102288.00
2022-10-06T10:13:22.608Z,102285.50
2022-10-06T10:15:55.165Z,102283.28
2022-10-06T10:18:26.342Z,102291.00
2022-10-06T10:20:55.767Z,102286.63
2022-10-06T10:23:30.838Z,102287.25
2022-10-06T10:26:23.585Z,102286.16
2022-10-06T10:29:19.571Z,102296.88
2022-10-06T10:31:58.262Z,102293.53
2022-10-06T10:34:42.062Z,102290.47
2022-10-06T10:37:12.743Z,102299.88
2022-10-06T10:39:43.387Z,102300.13
2022-10-06T10:42:13.450Z,102306.13
2022-10-06T10:44:44.526Z,102301.09
2022-10-06T10:47:18.943Z,102307.09
2022-10-06T10:49:46.840Z,102314.97
2022-10-06T10:52:17.571Z,102316.34
2022-10-06T10:54:49.435Z,102315.84
2022-10-06T10:57:17.332Z,102308.69
2022-10-06T10:59:55.118Z,102322.31
2022-10-06T11:02:22.538Z,102326.19
2022-10-06T11:04:49.618Z,102322.94
2022-10-06T11:07:23.438Z,102331.97
2022-10-06T11:09:55.492Z,102322.94
2022-10-06T11:12:36.387Z,102327.13
2022-10-06T11:15:05.226Z,102326.53
2022-10-06T11:17:45.340Z,102328.97
2022-10-06T11:20:27.059Z,102324.19
2022-10-06T11:23:00.555Z,102334.13
2022-10-06T11:25:35.090Z,102342.16
2022-10-06T11:28:08.970Z,102334.22
2022-10-06T11:30:38.145Z,102348.63
2022-10-06T11:33:13.647Z,102339.88
2022-10-06T11:35:39.420Z,102336.53
2022-10-06T11:38:13.195Z,102341.41
2022-10-06T11:40:51.841Z,102345.28
2022-10-06T11:43:28.622Z,102349.50
2022-10-06T11:46:01.625Z,102338.19
2022-10-06T11:48:28.155Z,102343.94
2022-10-06T11:50:55.393Z,102347.25
2022-10-06T11:53:41.752Z,102346.53
2022-10-06T11:56:46.890Z,102356.66
2022-10-06T11:59:26.227Z,102358.56
2022-10-06T12:01:57.540Z,102350.25
2022-10-06T12:04:24.712Z,102355.13
2022-10-06T12:07:03.228Z,102353.34
2022-10-06T12:09:52.087Z,102342.97
2022-10-06T12:13:06.646Z,102343.16
2022-10-06T12:19:19.662Z,102344.84
2022-10-06T12:21:55.927Z,102337.88
2022-10-06T12:24:39.044Z,102348.59
2022-10-06T12:27:42.853Z,102364.13
2022-10-06T12:30:22.606Z,102355.50
2022-10-06T12:32:54.826Z,102354.38
2022-10-06T12:35:30.414Z,102364.00
2022-10-06T12:37:55.317Z,102355.91
2022-10-06T12:41:02.793Z,102355.31
2022-10-06T12:43:58.246Z,102364.75
2022-10-06T12:46:40.620Z,102353.03
2022-10-06T12:49:31.967Z,102366.41
2022-10-06T12:51:59.681Z,102367.63
2022-10-06T12:54:33.366Z,102361.75
2022-10-06T12:57:00.673Z,102362.53
2022-10-06T12:59:28.361Z,102366.28
2022-10-06T13:01:54.037Z,102365.28
2022-10-06T13:04:38.402Z,102365.78
2022-10-06T13:07:08.521Z,102353.59
2022-10-06T13:09:32.493Z,102363.34
2022-10-06T13:11:58.183Z,102372.84
2022-10-06T13:14:23.771Z,102369.00
2022-10-06T13:16:49.531Z,102380.03
2022-10-06T13:19:19.008Z,102370.72
2022-10-06T13:21:42.584Z,102374.44
2022-10-06T13:24:06.853Z,102383.09
2022-10-06T13:26:34.664Z,102379.31
2022-10-06T13:29:01.218Z,102388.31
2022-10-06T13:31:27.340Z,102370.13
2022-10-06T13:33:55.887Z,102373.84
2022-10-06T13:36:20.366Z,102384.44
2022-10-06T13:38:44.142Z,102396.72
2022-10-06T13:41:18.858Z,102396.22
2022-10-06T13:43:47.061Z,102391.34
2022-10-06T13:46:15.907Z,102391.22
2022-10-06T13:48:46.499Z,102395.09
2022-10-06T13:51:18.673Z,102396.69
2022-10-06T13:53:45.005Z,102394.38
2022-10-06T13:56:46.122Z,102383.47
2022-10-06T13:59:37.066Z,102384.47
2022-10-06T14:02:22.698Z,102389.06
2022-10-06T14:04:46.842Z,102388.78
2022-10-06T14:07:14.024Z,102389.63
2022-10-06T14:09:37.691Z,102396.25
2022-10-06T14:12:07.846Z,102393.50
2022-10-06T14:14:31.910Z,102398.25
2022-10-06T14:16:55.659Z,102398.38
2022-10-06T14:19:34.277Z,102404.09
2022-10-06T14:21:57.861Z,102408.75
2022-10-06T14:24:26.249Z,102398.22
2022-10-06T14:26:51.209Z,102390.56
2022-10-06T14:29:15.090Z,102398.09
2022-10-06T14:31:38.953Z,102398.88
2022-10-06T14:34:03.504Z,102410.06
2022-10-06T14:36:30.201Z,102407.91
2022-10-06T14:38:56.786Z,102402.34
2022-10-06T14:41:24.737Z,102406.34
2022-10-06T14:43:49.325Z,102403.47
2022-10-06T14:46:14.598Z,102418.13
2022-10-06T14:48:38.314Z,102413.19
2022-10-06T14:51:04.240Z,102403.03
2022-10-06T14:53:29.250Z,102407.47
2022-10-06T14:55:52.844Z,102408.53
2022-10-06T14:58:16.422Z,102418.34
2022-10-06T15:00:42.911Z,102407.28
2022-10-06T15:03:06.673Z,102408.38
2022-10-06T15:05:31.323Z,102408.94
2022-10-06T15:08:12.260Z,102410.53
2022-10-06T15:10:38.874Z,102414.88
2022-10-06T15:13:02.434Z,102411.69
2022-10-06T15:15:26.120Z,102406.13
2022-10-06T15:17:49.732Z,102408.06
2022-10-06T15:20:14.349Z,102413.88
2022-10-06T15:22:37.895Z,102412.44
2022-10-06T15:25:03.370Z,102417.97
2022-10-06T15:27:45.480Z,102415.66
2022-10-06T15:30:11.466Z,102417.47
2022-10-06T15:32:35.008Z,102425.34
2022-10-06T15:35:00.254Z,102429.59
2022-10-06T15:37:23.886Z,102430.31
2022-10-06T15:39:47.611Z,102428.44
2022-10-06T15:42:11.205Z,102428.38
2022-10-06T15:44:36.557Z,102430.34
2022-10-06T15:47:00.111Z,102435.06
2022-10-06T15:49:25.280Z,102424.13
2022-10-06T15:51:52.548Z,102430.88
2022-10-06T15:54:19.878Z,102426.84
2022-10-06T15:56:43.395Z,102422.72
2022-10-06T15:59:07.957Z,102423.72
2022-10-06T16:01:46.531Z,102423.31
2022-10-06T16:04:24.072Z,102432.34
2022-10-06T16:06:54.375Z,102434.22
2022-10-06T16:09:19.873Z,102447.56
2022-10-06T16:11:43.511Z,102450.91
2022-10-06T16:14:07.455Z,102452.78
2022-10-06T16:16:31.194Z,102449.53
2022-10-06T16:18:56.511Z,102450.66
2022-10-06T16:21:20.098Z,102457.69
2022-10-06T16:23:43.666Z,102452.00
2022-10-06T16:26:07.480Z,102453.09
2022-10-06T16:28:31.145Z,102457.28
2022-10-06T16:30:58.144Z,102455.66
2022-10-06T16:33:21.920Z,102458.22
2022-10-06T16:35:55.953Z,102471.59
2022-10-06T16:38:19.707Z,102458.78
2022-10-06T16:40:43.289Z,102471.19
2022-10-06T16:43:07.021Z,102471.84
2022-10-06T16:45:30.645Z,102470.94
2022-10-06T16:47:54.214Z,102470.03
2022-10-06T16:50:17.907Z,102481.53
2022-10-06T16:52:42.901Z,102482.22
2022-10-06T16:55:08.283Z,102483.84
2022-10-06T16:57:31.883Z,102485.28
2022-10-06T16:59:55.420Z,102478.59
2022-10-06T17:02:19.008Z,102489.47
2022-10-06T17:04:42.562Z,102490.13
2022-10-06T17:07:06.135Z,102495.09
2022-10-06T17:09:31.379Z,102500.09
2022-10-06T17:11:57.437Z,102496.94
2022-10-06T17:14:22.384Z,102506.25
2022-10-06T17:16:48.309Z,102496.69
2022-10-06T17:19:14.476Z,102497.31
2022-10-06T17:21:47.336Z,102505.31
2022-10-06T17:24:11.213Z,102511.34
2022-10-06T17:26:39.136Z,102509.72
2022-10-06T17:29:06.540Z,102512.94
2022-10-06T17:31:35.767Z,102509.88
2022-10-06T17:33:59.891Z,102504.88
2022-10-06T17:36:25.438Z,102500.88
2022-10-06T17:38:52.179Z,102503.31
2022-10-06T17:41:18.483Z,102506.13
2022-10-06T17:43:46.994Z,102503.94
2022-10-06T17:46:14.255Z,102509.06
2022-10-06T17:48:37.940Z,102515.72
2022-10-06T17:51:01.903Z,102510.06
2022-10-06T17:53:26.703Z,102516.06
2022-10-06T17:55:50.267Z,102517.53
2022-10-06T17:58:18.453Z,102516.47
2022-10-06T18:00:43.673Z,102522.78
2022-10-06T18:03:09.033Z,102523.19
2022-10-06T18:05:33.243Z,102528.97
2022-10-06T18:07:58.830Z,102525.50
2022-10-06T18:10:39.935Z,102525.88
2022-10-06T18:13:03.553Z,102523.38
2022-10-06T18:15:27.168Z,102515.66
2022-10-06T18:17:52.900Z,102528.84
2022-10-06T18:20:16.716Z,102523.84
2022-10-06T18:22:40.623Z,102528.75
2022-10-06T18:25:04.559Z,102528.16
2022-10-06T18:27:28.411Z,102530.97
2022-10-06T18:29:52.257Z,102537.84
2022-10-06T18:33:40.218Z,102534.66
2022-10-06T18:37:44.686Z,102525.97
2022-10-06T18:40:11.287Z,102527.72
2022-10-06T18:42:34.971Z,102530.84
2022-10-06T18:45:18.246Z,102531.13
2022-10-06T18:47:59.480Z,102532.81
2022-10-06T18:50:26.551Z,102533.97
2022-10-06T18:52:50.464Z,102529.53
2022-10-06T18:55:14.289Z,102534.41
2022-10-06T18:57:37.836Z,102529.47
2022-10-06T19:00:01.751Z,102532.25
2022-10-06T19:02:26.399Z,102534.25
2022-10-06T19:04:50.265Z,102538.66
2022-10-06T19:07:16.463Z,102539.03
2022-10-06T19:09:45.342Z,102523.13
2022-10-06T19:12:11.109Z,102529.91
2022-10-06T19:14:40.621Z,102532.22
2022-10-06T19:17:09.065Z,102537.72
2022-10-06T19:19:34.071Z,102541.25
2022-10-06T19:22:00.526Z,102543.56
2022-10-06T19:24:25.602Z,102540.72
2022-10-06T19:26:52.600Z,102544.25
2022-10-06T19:29:22.780Z,102543.81
2022-10-06T19:31:48.028Z,102546.09
2022-10-06T19:34:14.448Z,102560.22
2022-10-06T19:36:39.134Z,102553.16
2022-10-06T19:39:04.572Z,102553.25
2022-10-06T19:41:47.179Z,102555.16
2022-10-06T19:44:12.190Z,102551.63
2022-10-06T19:46:37.504Z,102561.63
2022-10-06T19:49:05.716Z,102561.13
2022-10-06T19:51:29.319Z,102563.97
2022-10-06T19:53:53.074Z,102561.44
2022-10-06T19:56:18.090Z,102565.25
2022-10-06T19:58:43.029Z,102562.91
2022-10-06T20:01:07.358Z,102571.91
2022-10-06T20:03:31.496Z,102568.91
2022-10-06T20:05:55.229Z,102576.16
2022-10-06T20:08:20.176Z,102574.47
2022-10-06T20:10:43.772Z,102574.47
2022-10-06T20:13:07.429Z,102583.00
2022-10-06T20:15:32.555Z,102575.78
2022-10-06T20:17:56.369Z,102582.50
2022-10-06T20:20:20.187Z,102587.09
2022-10-06T20:22:43.872Z,102576.50
2022-10-06T20:25:07.900Z,102582.75
2022-10-06T20:27:31.744Z,102581.41
2022-10-06T20:29:55.279Z,102585.97
2022-10-06T20:32:20.267Z,102588.56
2022-10-06T20:34:44.417Z,102577.66
2022-10-06T20:37:08.089Z,102585.81
2022-10-06T20:40:03.339Z,102589.03
2022-10-06T20:42:27.996Z,102590.75
2022-10-06T20:44:51.543Z,102595.41
2022-10-06T20:47:16.553Z,102590.91
2022-10-06T20:49:42.582Z,102590.31
2022-10-06T20:52:07.388Z,102589.69
2022-10-06T20:54:34.838Z,102589.19
2022-10-06T20:56:59.038Z,102586.50
2022-10-06T20:59:24.708Z,102587.44
2022-10-06T21:01:51.013Z,102592.09
2022-10-06T21:04:15.198Z,102588.75
2022-10-06T21:06:40.388Z,102600.88
2022-10-06T21:09:03.887Z,102590.09
2022-10-06T21:11:28.212Z,102599.00
2022-10-06T21:13:53.741Z,102597.19
2022-10-06T21:16:17.417Z,102600.81
2022-10-06T21:18:40.996Z,102598.44
2022-10-06T21:21:07.706Z,102591.28
2022-10-06T21:23:38.485Z,102579.88
2022-10-06T21:26:03.172Z,102585.41
2022-10-06T21:28:26.731Z,102587.28
2022-10-06T21:30:50.463Z,102587.41
2022-10-06T21:33:14.084Z,102581.63
2022-10-06T21:35:37.622Z,102568.00
2022-10-06T21:38:01.134Z,102577.16
2022-10-06T21:40:26.134Z,102569.94
2022-10-06T21:42:49.689Z,102573.94
2022-10-06T21:45:13.223Z,102567.69
2022-10-06T21:47:36.676Z,102572.53
2022-10-06T21:50:00.260Z,102580.66
2022-10-06T21:52:23.732Z,102577.91
2022-10-06T21:54:47.255Z,102581.53
2022-10-06T21:57:15.340Z,102588.91
2022-10-06T21:59:38.895Z,102574.94
2022-10-06T22:02:02.639Z,102578.38
2022-10-06T22:04:26.436Z,102574.19
2022-10-06T22:06:50.735Z,102582.16
2022-10-06T22:09:18.351Z,102578.09
2022-10-06T22:11:42.652Z,102571.72
2022-10-06T22:14:14.112Z,102566.56
2022-10-06T22:16:38.829Z,102564.34
2022-10-06T22:19:05.274Z,102560.59
2022-10-06T22:21:32.339Z,102561.13
2022-10-06T22:23:58.003Z,102561.78
2022-10-06T22:26:21.672Z,102569.91
2022-10-06T22:28:48.790Z,102560.03
2022-10-06T22:31:14.278Z,102561.81
2022-10-06T22:33:39.723Z,102560.06
2022-10-06T22:36:03.824Z,102560.34
2022-10-06T22:38:27.464Z,102557.13
2022-10-06T22:40:51.016Z,102555.19
2022-10-06T22:43:14.532Z,102558.59
2022-10-06T22:45:38.100Z,102556.19
2022-10-06T22:48:02.996Z,102554.72
2022-10-06T22:50:26.605Z,102552.13
2022-10-06T22:52:50.132Z,102544.09
2022-10-06T22:55:13.693Z,102546.06
2022-10-06T22:57:37.228Z,102543.38
2022-10-06T23:00:00.759Z,102546.53
2022-10-06T23:02:24.327Z,102543.66
2022-10-06T23:04:49.266Z,102547.44
2022-10-06T23:07:12.740Z,102539.59
2022-10-06T23:09:36.718Z,102536.91
2022-10-06T23:12:00.208Z,102524.84
2022-10-06T23:14:23.825Z,102526.94
2022-10-06T23:16:47.502Z,102535.56
2022-10-06T23:19:12.157Z,102527.53
2022-10-06T23:21:39.925Z,102526.66
2022-10-06T23:24:03.509Z,102525.78
2022-10-06T23:26:27.679Z,102530.53
2022-10-06T23:28:56.858Z,102536.00
2022-10-06T23:31:20.435Z,102536.28
2022-10-06T23:33:44.140Z,102532.41
2022-10-06T23:36:10.337Z,102531.84
2022-10-06T23:38:36.138Z,102533.47
2022-10-06T23:40:59.667Z,102531.00
2022-10-06T23:43:24.429Z,102534.13
2022-10-06T23:45:47.997Z,102531.19
2022-10-06T23:48:11.607Z,102532.19
2022-10-06T23:50:35.123Z,102534.22
2022-10-06T23:52:58.679Z,102541.00
2022-10-06T23:55:23.601Z,102532.06
2022-10-06T23:57:47.302Z,102531.91
